Haines, AK

6:52 AM AKST on December 05, 2016 (GMT -0900)
| | Change Station

Elev -9999 ft 0.00 °N, 0.00 °E | Updated

Clear
Clear
13 °F
Feels Like -3 °F
N
14
Wind Variable Wind from NW
Gusts mph

Today
High -- | Low -- °F
--% Chance of Precip.
Yesterday
High -- | Low -- °F
Precip. -- in
Pressure 30.55 in
Visibility 10.0 miles
Clouds Clear
Windchill -3 °F
Dew Point 1 °F
Humidity 58%
Rainfall --
Snow Depth Not available.
8:39 AM 3:05 PM
Waxing Crescent, 32% visible
METAR PAHN 051454Z AUTO 32014G21KT 10SM CLR M13/M18 A3054 RMK AO2 SLP343 T11281178 52004 TSNO
Pressure 30.55 in
Visibility 10.0 miles
Clouds Clear
Windchill -3 °F
Dew Point 1 °F
Humidity 58%
Rainfall --
Snow Depth Not available.
8:39 AM 3:05 PM
Waxing Crescent, 32% visible
METAR PAHN 051454Z AUTO 32014G21KT 10SM CLR M13/M18 A3054 RMK AO2 SLP343 T11281178 52004 TSNO

10-Day Weather Forecast

Almanac

Astronomy

Dec. 05, 2016 Rise Set
Actual Time
Civil Twilight
Nautical Twilight
Astronomical Twilight
Moon
Length of Visible Light
Length of Day
Tomorrow will be .
, % of the Moon is Illuminated

Today's Extremes

State Highs State Lows

Community

WunderPhotos

Upload Photos

1,955,794 photos uploaded!

WunderBlog® & News

Nearby

Air Quality

  Air Quality AQ Index Pollutant
Not available.

Snow Depth

Station Depth Elevation

Earthquake Activity

City Distance Mag. Time & Date
Minimum magnitude displayed is 2.5.

Coastal Water Temperatures

Place Temperature

Stations

Nearby Weather Stations

Station Location Temp. Windchill Dew Point Humidity Wind Precip. Elev Updated Type
                   

Watches & Warnings

There are currently no watches in effect.